createdAt,value
2018-04-17T00:00:23.562Z,999.6
2018-04-17T00:01:24.218Z,999.5
2018-04-17T00:02:24.876Z,999.6
2018-04-17T00:03:25.533Z,999.5
2018-04-17T00:04:26.190Z,999.5
2018-04-17T00:05:26.850Z,999.5
2018-04-17T00:06:27.506Z,999.6
2018-04-17T00:07:28.164Z,999.6
2018-04-17T00:08:28.822Z,999.6
2018-04-17T00:09:29.477Z,999.6
2018-04-17T00:10:30.139Z,999.6
2018-04-17T00:11:30.793Z,999.6
2018-04-17T00:12:31.450Z,999.7
2018-04-17T00:13:32.108Z,999.7
2018-04-17T00:14:32.765Z,999.6
2018-04-17T00:15:33.424Z,999.6
2018-04-17T00:16:34.080Z,999.6
2018-04-17T00:17:34.740Z,999.7
2018-04-17T00:18:35.393Z,999.6
2018-04-17T00:19:36.051Z,999.6
2018-04-17T00:20:36.710Z,999.7
2018-04-17T00:21:37.367Z,999.7
2018-04-17T00:22:38.023Z,999.7
2018-04-17T00:23:38.731Z,999.7
2018-04-17T00:24:39.426Z,999.8
2018-04-17T00:25:40.084Z,999.8
2018-04-17T00:26:40.738Z,999.7
2018-04-17T00:27:41.396Z,999.7
2018-04-17T00:28:42.090Z,999.7
2018-04-17T00:29:42.749Z,999.7
2018-04-17T00:30:43.408Z,999.8
2018-04-17T00:31:44.064Z,999.7
2018-04-17T00:32:44.724Z,999.7
2018-04-17T00:33:45.378Z,999.8
2018-04-17T00:34:46.036Z,999.8
2018-04-17T00:35:46.694Z,999.8
2018-04-17T00:36:47.350Z,999.8
2018-04-17T00:37:48.046Z,999.9
2018-04-17T00:38:48.753Z,999.9
2018-04-17T00:39:49.409Z,999.9
2018-04-17T00:40:50.066Z,999.9
2018-04-17T00:41:50.722Z,999.9
2018-04-17T00:42:51.379Z,999.9
2018-04-17T00:43:52.039Z,1000.0
2018-04-17T00:44:52.696Z,1000.0
2018-04-17T00:45:53.355Z,1000.0
2018-04-17T00:46:54.013Z,1000.0
2018-04-17T00:47:54.673Z,1000.0
2018-04-17T00:48:55.330Z,1000.0
2018-04-17T00:49:55.987Z,1000.0
2018-04-17T00:50:56.647Z,1000.0
2018-04-17T00:51:57.306Z,1000.0
2018-04-17T00:52:57.964Z,1000.0
2018-04-17T00:53:58.671Z,1000.1
2018-04-17T00:54:59.329Z,1000.1
2018-04-17T00:55:59.988Z,1000.1
2018-04-17T00:57:00.644Z,1000.1
2018-04-17T00:58:01.304Z,1000.0
2018-04-17T00:59:01.963Z,1000.1
2018-04-17T01:00:02.631Z,1000.1
2018-04-17T01:01:03.280Z,1000.1
2018-04-17T01:02:03.939Z,1000.0
2018-04-17T01:03:04.597Z,1000.1
2018-04-17T01:04:05.260Z,1000.1
2018-04-17T01:05:05.916Z,1000.1
2018-04-17T01:06:06.579Z,1000.1
2018-04-17T01:07:07.232Z,1000.1
2018-04-17T01:08:07.891Z,1000.2
2018-04-17T01:09:08.636Z,1000.2
2018-04-17T01:10:09.295Z,1000.2
2018-04-17T01:11:09.953Z,1000.2
2018-04-17T01:12:10.611Z,1000.2
2018-04-17T01:13:11.268Z,1000.2
2018-04-17T01:14:11.927Z,1000.2
2018-04-17T01:15:12.584Z,1000.2
2018-04-17T01:16:13.242Z,1000.2
2018-04-17T01:17:13.902Z,1000.2
2018-04-17T01:18:14.559Z,1000.2
2018-04-17T01:19:15.219Z,1000.2
2018-04-17T01:20:15.876Z,1000.2
2018-04-17T01:21:16.533Z,1000.2
2018-04-17T01:22:17.192Z,1000.2
2018-04-17T01:23:17.848Z,1000.2
2018-04-17T01:24:18.505Z,1000.2
2018-04-17T01:25:19.164Z,1000.2
2018-04-17T01:26:19.825Z,1000.2
2018-04-17T01:27:20.478Z,1000.2
2018-04-17T01:28:21.137Z,1000.2
2018-04-17T01:29:21.794Z,1000.2
2018-04-17T01:30:22.451Z,1000.2
2018-04-17T01:31:23.110Z,1000.2
2018-04-17T01:32:23.766Z,1000.2
2018-04-17T01:33:24.425Z,1000.2
2018-04-17T01:34:25.085Z,1000.3
2018-04-17T01:35:25.777Z,1000.3
2018-04-17T01:36:26.437Z,1000.3
2018-04-17T01:37:27.093Z,1000.3
2018-04-17T01:38:27.755Z,1000.4
2018-04-17T01:39:28.410Z,1000.4
2018-04-17T01:40:29.067Z,1000.5
2018-04-17T01:41:29.726Z,1000.5
2018-04-17T01:42:30.429Z,1000.5
2018-04-17T01:43:31.082Z,1000.5
2018-04-17T01:44:31.775Z,1000.5
2018-04-17T01:45:32.431Z,1000.5
2018-04-17T01:46:33.092Z,1000.5
2018-04-17T01:47:33.746Z,1000.5
2018-04-17T01:48:34.405Z,1000.5
2018-04-17T01:49:35.153Z,1000.5
2018-04-17T01:50:35.818Z,1000.5
2018-04-17T01:51:36.507Z,1000.6
2018-04-17T01:52:37.165Z,1000.6
2018-04-17T01:53:37.822Z,1000.7
2018-04-17T01:54:38.583Z,1000.6
2018-04-17T01:55:39.240Z,1000.7
2018-04-17T01:56:39.900Z,1000.7
2018-04-17T01:57:40.598Z,1000.7
2018-04-17T01:58:41.217Z,1000.7
2018-04-17T01:59:41.924Z,1000.7
2018-04-17T02:00:42.582Z,1000.7
2018-04-17T02:01:43.241Z,1000.7
2018-04-17T02:02:43.898Z,1000.7
2018-04-17T02:03:44.557Z,1000.7
2018-04-17T02:04:45.216Z,1000.7
2018-04-17T02:05:45.872Z,1000.7
2018-04-17T02:06:46.530Z,1000.8
2018-04-17T02:07:47.188Z,1000.8
2018-04-17T02:08:47.844Z,1000.8
2018-04-17T02:09:48.554Z,1000.8
2018-04-17T02:10:49.213Z,1000.8
2018-04-17T02:11:49.872Z,1000.9
2018-04-17T02:12:50.528Z,1000.8
2018-04-17T02:13:51.185Z,1000.8
2018-04-17T02:14:51.844Z,1000.8
2018-04-17T02:15:52.500Z,1000.8
2018-04-17T02:16:53.159Z,1000.8
2018-04-17T02:17:53.854Z,1000.9
2018-04-17T02:18:54.511Z,1000.9
2018-04-17T02:19:55.168Z,1000.9
2018-04-17T02:20:55.827Z,1000.9
2018-04-17T02:21:56.485Z,1000.9
2018-04-17T02:22:57.180Z,1000.9
2018-04-17T02:23:57.837Z,1000.9
2018-04-17T02:24:58.494Z,1000.9
2018-04-17T02:25:59.155Z,1000.9
2018-04-17T02:26:59.812Z,1000.9
2018-04-17T02:28:00.466Z,1000.9
2018-04-17T02:29:01.124Z,1000.9
2018-04-17T02:30:01.788Z,1001.0
2018-04-17T02:31:02.440Z,1001.0
2018-04-17T02:32:03.102Z,1001.0
2018-04-17T02:33:03.756Z,1001.0
2018-04-17T02:34:04.414Z,1001.0
2018-04-17T02:35:05.072Z,1001.0
2018-04-17T02:36:05.728Z,1001.0
2018-04-17T02:37:06.389Z,1001.0
2018-04-17T02:38:07.047Z,1001.0
2018-04-17T02:39:07.705Z,1001.0
2018-04-17T02:40:08.364Z,1001.0
2018-04-17T02:41:09.021Z,1001.0
2018-04-17T02:42:09.712Z,1001.1
2018-04-17T02:43:10.371Z,1001.1
2018-04-17T02:44:11.029Z,1001.1
2018-04-17T02:45:11.686Z,1001.2
2018-04-17T02:46:12.345Z,1001.2
2018-04-17T02:47:13.000Z,1001.2
2018-04-17T02:48:13.658Z,1001.2
2018-04-17T02:49:14.321Z,1001.2
2018-04-17T02:50:14.975Z,1001.2
2018-04-17T02:51:15.632Z,1001.2
2018-04-17T02:52:16.287Z,1001.2
2018-04-17T02:53:16.977Z,1001.2
2018-04-17T02:54:17.606Z,1001.2
2018-04-17T02:55:18.260Z,1001.1
2018-04-17T02:56:18.918Z,1001.2
2018-04-17T02:57:19.576Z,1001.2
2018-04-17T02:58:20.237Z,1001.2
2018-04-17T02:59:20.891Z,1001.2
2018-04-17T03:00:21.548Z,1001.2
2018-04-17T03:01:22.208Z,1001.2
2018-04-17T03:02:22.903Z,1001.2
2018-04-17T03:03:23.559Z,1001.2
2018-04-17T03:04:24.216Z,1001.1
2018-04-17T03:05:24.924Z,1001.2
2018-04-17T03:06:25.580Z,1001.2
2018-04-17T03:07:26.239Z,1001.2
2018-04-17T03:08:26.896Z,1001.2
2018-04-17T03:09:27.552Z,1001.2
2018-04-17T03:10:28.212Z,1001.2
2018-04-17T03:11:28.867Z,1001.3
2018-04-17T03:12:29.526Z,1001.3
2018-04-17T03:13:30.186Z,1001.2
2018-04-17T03:14:30.841Z,1001.2
2018-04-17T03:15:31.504Z,1001.3
2018-04-17T03:16:32.157Z,1001.3
2018-04-17T03:17:32.814Z,1001.3
2018-04-17T03:18:33.473Z,1001.3
2018-04-17T03:19:34.132Z,1001.3
2018-04-17T03:20:34.840Z,1001.3
2018-04-17T03:21:35.501Z,1001.3
2018-04-17T03:22:36.154Z,1001.3
2018-04-17T03:23:36.812Z,1001.3
2018-04-17T03:24:37.469Z,1001.4
2018-04-17T03:25:38.129Z,1001.4
2018-04-17T03:26:38.823Z,1001.4
2018-04-17T03:27:39.481Z,1001.3
2018-04-17T03:28:40.139Z,1001.4
2018-04-17T03:29:40.796Z,1001.4
2018-04-17T03:30:41.456Z,1001.4
2018-04-17T03:31:42.148Z,1001.4
2018-04-17T03:32:42.770Z,1001.4
2018-04-17T03:33:43.428Z,1001.4
2018-04-17T03:34:44.087Z,1001.4
2018-04-17T03:35:44.743Z,1001.4
2018-04-17T03:36:45.402Z,1001.5
2018-04-17T03:37:46.058Z,1001.4
2018-04-17T03:38:46.717Z,1001.5
2018-04-17T03:39:47.411Z,1001.5
2018-04-17T03:40:48.069Z,1001.5
2018-04-17T03:41:48.732Z,1001.5
2018-04-17T03:42:49.389Z,1001.5
2018-04-17T03:43:50.042Z,1001.5
2018-04-17T03:44:50.698Z,1001.5
2018-04-17T03:45:51.356Z,1001.4
2018-04-17T03:46:52.014Z,1001.5
2018-04-17T03:47:52.674Z,1001.4
2018-04-17T03:48:53.330Z,1001.4
2018-04-17T03:49:54.025Z,1001.4
2018-04-17T03:50:54.683Z,1001.4
2018-04-17T03:51:55.341Z,1001.5
2018-04-17T03:52:56.005Z,1001.5
2018-04-17T03:53:56.658Z,1001.5
2018-04-17T03:54:57.352Z,1001.5
2018-04-17T03:55:58.011Z,1001.5
2018-04-17T03:56:58.668Z,1001.5
2018-04-17T03:57:59.327Z,1001.5
2018-04-17T03:58:59.989Z,1001.6
2018-04-17T04:00:00.680Z,1001.6
2018-04-17T04:01:01.338Z,1001.6
2018-04-17T04:02:01.998Z,1001.6
2018-04-17T04:03:02.658Z,1001.6
2018-04-17T04:04:03.364Z,1001.7
2018-04-17T04:05:04.012Z,1001.7
2018-04-17T04:06:04.672Z,1001.7
2018-04-17T04:07:05.330Z,1001.7
2018-04-17T04:08:05.989Z,1001.7
2018-04-17T04:09:06.649Z,1001.8
2018-04-17T04:10:07.309Z,1001.8
2018-04-17T04:11:07.966Z,1001.8
2018-04-17T04:12:08.626Z,1001.8
2018-04-17T04:13:09.298Z,1001.8
2018-04-17T04:14:09.984Z,1001.9
2018-04-17T04:15:10.642Z,1001.9
2018-04-17T04:16:11.302Z,1001.9
2018-04-17T04:17:11.957Z,1001.9
2018-04-17T04:18:12.618Z,1001.9
2018-04-17T04:19:13.278Z,1001.9
2018-04-17T04:20:13.937Z,1001.9
2018-04-17T04:21:14.597Z,1001.9
2018-04-17T04:22:15.258Z,1001.9
2018-04-17T04:23:15.919Z,1001.9
2018-04-17T04:24:16.581Z,1001.9
2018-04-17T04:25:17.241Z,1001.9
2018-04-17T04:26:17.938Z,1001.9
2018-04-17T04:27:18.599Z,1002.0
2018-04-17T04:28:19.255Z,1002.0
2018-04-17T04:29:19.916Z,1002.0
2018-04-17T04:30:20.583Z,1002.0
2018-04-17T04:31:21.241Z,1002.0
2018-04-17T04:32:21.900Z,1002.0
2018-04-17T04:33:22.562Z,1002.1
2018-04-17T04:34:23.223Z,1002.0
2018-04-17T04:35:23.886Z,1002.0
2018-04-17T04:36:24.545Z,1002.1
2018-04-17T04:37:25.206Z,1002.1
2018-04-17T04:38:25.867Z,1002.1
2018-04-17T04:39:26.531Z,1002.1
2018-04-17T04:40:27.230Z,1002.1
2018-04-17T04:41:27.892Z,1002.2
2018-04-17T04:42:28.549Z,1002.2
2018-04-17T04:43:29.210Z,1002.2
2018-04-17T04:44:29.873Z,1002.2
2018-04-17T04:45:30.534Z,1002.2
2018-04-17T04:46:31.193Z,1002.2
2018-04-17T04:47:31.893Z,1002.3
2018-04-17T04:48:32.556Z,1002.3
2018-04-17T04:49:33.256Z,1002.3
2018-04-17T04:50:33.918Z,1002.4
2018-04-17T04:51:34.576Z,1002.5
2018-04-17T04:52:35.238Z,1002.5
2018-04-17T04:53:35.901Z,1002.5
2018-04-17T04:54:36.600Z,1002.5
2018-04-17T04:55:37.261Z,1002.5
2018-04-17T04:56:37.923Z,1002.5
2018-04-17T04:57:38.630Z,1002.5
2018-04-17T04:58:39.251Z,1002.5
2018-04-17T04:59:39.947Z,1002.5
2018-04-17T05:00:40.609Z,1002.5
2018-04-17T05:01:41.270Z,1002.5
2018-04-17T05:02:41.934Z,1002.6
2018-04-17T05:03:42.598Z,1002.6
2018-04-17T05:04:43.259Z,1002.6
2018-04-17T05:05:43.917Z,1002.6
2018-04-17T05:06:44.579Z,1002.7
2018-04-17T05:07:45.244Z,1002.7
2018-04-17T05:08:45.903Z,1002.7
2018-04-17T05:09:46.564Z,1002.7
2018-04-17T05:10:47.225Z,1002.7
2018-04-17T05:11:47.886Z,1002.8
2018-04-17T05:12:48.562Z,1002.8
2018-04-17T05:13:49.208Z,1002.8
2018-04-17T05:14:49.868Z,1002.8
2018-04-17T05:15:50.529Z,1002.8
2018-04-17T05:16:51.191Z,1002.8
2018-04-17T05:17:51.853Z,1002.8
2018-04-17T05:18:52.516Z,1002.8
2018-04-17T05:19:53.181Z,1002.8
2018-04-17T05:20:53.838Z,1002.8
2018-04-17T05:21:54.499Z,1002.8
2018-04-17T05:22:55.161Z,1002.8
2018-04-17T05:23:55.823Z,1002.8
2018-04-17T05:24:56.486Z,1002.8
2018-04-17T05:25:57.147Z,1002.9
2018-04-17T05:26:57.809Z,1002.9
2018-04-17T05:27:58.472Z,1002.9
2018-04-17T05:28:59.134Z,1002.9
2018-04-17T05:29:59.795Z,1003.0
2018-04-17T05:31:00.455Z,1003.0
2018-04-17T05:32:01.117Z,1003.0
2018-04-17T05:33:01.817Z,1002.9
2018-04-17T05:34:02.480Z,1003.0
2018-04-17T05:35:03.144Z,1003.0
2018-04-17T05:36:03.807Z,1003.0
2018-04-17T05:37:04.465Z,1003.1
2018-04-17T05:38:05.168Z,1003.1
2018-04-17T05:39:05.868Z,1003.1
2018-04-17T05:40:06.596Z,1003.2
2018-04-17T05:41:07.229Z,1003.1
2018-04-17T05:42:07.891Z,1003.2
2018-04-17T05:43:08.552Z,1003.2
2018-04-17T05:44:09.215Z,1003.2
2018-04-17T05:45:09.879Z,1003.2
2018-04-17T05:46:10.542Z,1003.3
2018-04-17T05:47:11.208Z,1003.3
2018-04-17T05:48:11.865Z,1003.3
2018-04-17T05:49:12.524Z,1003.3
2018-04-17T05:50:13.211Z,1003.4
2018-04-17T05:51:13.849Z,1003.4
2018-04-17T05:52:14.515Z,1003.4
2018-04-17T05:53:15.212Z,1003.3
2018-04-17T05:54:15.875Z,1003.4
2018-04-17T05:55:16.542Z,1003.4
2018-04-17T05:56:17.251Z,1003.4
2018-04-17T05:57:17.898Z,1003.4
2018-04-17T05:58:18.566Z,1003.4
2018-04-17T05:59:19.229Z,1003.4
2018-04-17T06:00:19.884Z,1003.3
2018-04-17T06:01:20.549Z,1003.3
2018-04-17T06:02:21.209Z,1003.3
2018-04-17T06:03:21.873Z,1003.4
2018-04-17T06:04:22.538Z,1003.4
2018-04-17T06:05:23.199Z,1003.4
2018-04-17T06:06:23.861Z,1003.5
2018-04-17T06:07:24.524Z,1003.6
2018-04-17T06:08:25.196Z,1003.6
2018-04-17T06:09:25.890Z,1003.6
2018-04-17T06:10:26.554Z,1003.6
2018-04-17T06:11:27.216Z,1003.6
2018-04-17T06:12:27.886Z,1003.7
2018-04-17T06:13:28.543Z,1003.7
2018-04-17T06:14:29.210Z,1003.7
2018-04-17T06:15:29.912Z,1003.7
2018-04-17T06:16:30.581Z,1003.8
2018-04-17T06:17:31.241Z,1003.8
2018-04-17T06:18:31.904Z,1003.8
2018-04-17T06:19:32.567Z,1003.8
2018-04-17T06:20:33.231Z,1003.9
2018-04-17T06:21:33.897Z,1003.9
2018-04-17T06:22:34.596Z,1003.9
2018-04-17T06:23:35.261Z,1003.9
2018-04-17T06:24:35.925Z,1003.8
2018-04-17T06:25:36.590Z,1003.8
2018-04-17T06:26:37.254Z,1003.8
2018-04-17T06:27:37.966Z,1003.8
2018-04-17T06:28:38.621Z,1003.9
2018-04-17T06:29:39.285Z,1003.9
2018-04-17T06:30:39.952Z,1003.9
2018-04-17T06:31:40.613Z,1003.9
2018-04-17T06:32:41.277Z,1004.0
2018-04-17T06:33:41.950Z,1004.0
2018-04-17T06:34:42.644Z,1004.0
2018-04-17T06:35:43.309Z,1004.0
2018-04-17T06:36:43.976Z,1004.0
2018-04-17T06:37:44.645Z,1004.1
2018-04-17T06:38:45.346Z,1004.0
2018-04-17T06:39:46.011Z,1004.1
2018-04-17T06:40:46.676Z,1004.1
2018-04-17T06:41:47.410Z,1004.1
2018-04-17T06:42:48.043Z,1004.2
2018-04-17T06:43:48.708Z,1004.2
2018-04-17T06:44:49.373Z,1004.2
2018-04-17T06:45:50.039Z,1004.2
2018-04-17T06:46:50.702Z,1004.2
2018-04-17T06:47:51.368Z,1004.2
2018-04-17T06:48:52.034Z,1004.2
2018-04-17T06:49:52.700Z,1004.1
2018-04-17T06:50:53.365Z,1004.1
2018-04-17T06:51:54.030Z,1004.2
2018-04-17T06:52:54.694Z,1004.2
2018-04-17T06:53:55.359Z,1004.2
2018-04-17T06:54:56.024Z,1004.3
2018-04-17T06:55:56.691Z,1004.3
2018-04-17T06:56:57.357Z,1004.3
2018-04-17T06:57:58.044Z,1004.4
2018-04-17T06:58:58.691Z,1004.4
2018-04-17T06:59:59.358Z,1004.4
2018-04-17T07:01:00.025Z,1004.4
2018-04-17T07:02:00.691Z,1004.5
2018-04-17T07:03:01.357Z,1004.5
2018-04-17T07:04:02.024Z,1004.5
2018-04-17T07:05:02.693Z,1004.6
2018-04-17T07:06:03.361Z,1004.6
2018-04-17T07:07:04.029Z,1004.6
2018-04-17T07:08:04.713Z,1004.6
2018-04-17T07:09:05.380Z,1004.6
2018-04-17T07:10:06.046Z,1004.6
2018-04-17T07:11:06.711Z,1004.6
2018-04-17T07:12:07.417Z,1004.5
2018-04-17T07:13:08.087Z,1004.6
2018-04-17T07:14:08.758Z,1004.6
2018-04-17T07:15:09.426Z,1004.6
2018-04-17T07:16:10.095Z,1004.6
2018-04-17T07:17:10.763Z,1004.6
2018-04-17T07:18:11.432Z,1004.6
2018-04-17T07:19:12.138Z,1004.6
2018-04-17T07:20:12.806Z,1004.7
2018-04-17T07:21:13.510Z,1004.7
2018-04-17T07:22:14.215Z,1004.8
2018-04-17T07:23:14.884Z,1004.7
2018-04-17T07:24:15.553Z,1004.8
2018-04-17T07:25:16.222Z,1004.8
2018-04-17T07:26:16.892Z,1004.8
2018-04-17T07:27:17.597Z,1004.8
2018-04-17T07:28:18.265Z,1004.9
2018-04-17T07:29:18.935Z,1004.9
2018-04-17T07:30:19.604Z,1004.8
2018-04-17T07:31:20.274Z,1004.8
2018-04-17T07:32:20.949Z,1004.9
2018-04-17T07:33:21.651Z,1004.9
2018-04-17T07:34:22.318Z,1004.9
2018-04-17T07:35:22.986Z,1004.9
2018-04-17T07:36:23.656Z,1004.9
2018-04-17T07:37:24.325Z,1004.9
2018-04-17T07:38:24.994Z,1004.9
2018-04-17T07:39:25.671Z,1004.9
2018-04-17T07:40:26.344Z,1004.9
2018-04-17T07:41:27.000Z,1004.8
2018-04-17T07:42:27.671Z,1004.9
2018-04-17T07:43:28.395Z,1004.9
2018-04-17T07:44:29.011Z,1005.0
2018-04-17T07:45:29.680Z,1004.9
2018-04-17T07:46:30.351Z,1004.9
2018-04-17T07:47:31.024Z,1004.9
2018-04-17T07:48:31.731Z,1004.9
2018-04-17T07:49:32.437Z,1005.0
2018-04-17T07:50:33.071Z,1005.0
2018-04-17T07:51:33.775Z,1005.0
2018-04-17T07:52:34.444Z,1005.0
2018-04-17T07:53:35.113Z,1005.0
2018-04-17T07:54:35.781Z,1005.1
2018-04-17T07:55:36.450Z,1005.1
2018-04-17T07:56:37.117Z,1005.1
2018-04-17T07:57:37.787Z,1005.1
2018-04-17T07:58:38.457Z,1005.1
2018-04-17T07:59:39.182Z,1005.1
2018-04-17T08:00:39.800Z,1005.1
2018-04-17T08:01:40.469Z,1005.0
2018-04-17T08:02:41.137Z,1005.1
2018-04-17T08:03:41.808Z,1005.0
2018-04-17T08:04:42.478Z,1005.1
2018-04-17T08:05:43.148Z,1005.1
2018-04-17T08:06:43.817Z,1005.1
2018-04-17T08:07:44.487Z,1005.1
2018-04-17T08:08:45.158Z,1005.0
2018-04-17T08:09:45.827Z,1005.0
2018-04-17T08:10:46.498Z,1005.0
2018-04-17T08:11:47.212Z,1005.1
2018-04-17T08:12:47.841Z,1005.1
2018-04-17T08:13:48.513Z,1005.1
2018-04-17T08:14:49.183Z,1005.1
2018-04-17T08:15:49.853Z,1005.1
2018-04-17T08:16:50.525Z,1005.1
2018-04-17T08:17:51.192Z,1005.1
2018-04-17T08:18:51.864Z,1005.1
2018-04-17T08:19:52.537Z,1005.1
2018-04-17T08:20:53.244Z,1005.1
2018-04-17T08:21:53.917Z,1005.1
2018-04-17T08:22:54.588Z,1005.1
2018-04-17T08:23:55.296Z,1005.1
2018-04-17T08:24:55.965Z,1005.1
2018-04-17T08:25:56.636Z,1005.1
2018-04-17T08:26:57.305Z,1005.1
2018-04-17T08:27:57.991Z,1005.1
2018-04-17T08:28:58.651Z,1005.2
2018-04-17T08:29:59.356Z,1005.2
2018-04-17T08:31:00.065Z,1005.2
2018-04-17T08:32:00.734Z,1005.2
2018-04-17T08:33:01.405Z,1005.2
2018-04-17T08:34:02.128Z,1005.2
2018-04-17T08:35:02.835Z,1005.2
2018-04-17T08:36:03.506Z,1005.2
2018-04-17T08:37:04.201Z,1005.2
2018-04-17T08:38:04.850Z,1005.2
2018-04-17T08:39:05.522Z,1005.2
2018-04-17T08:40:06.194Z,1005.2
2018-04-17T08:41:06.865Z,1005.2
2018-04-17T08:42:07.537Z,1005.2
2018-04-17T08:43:08.209Z,1005.2
2018-04-17T08:44:08.881Z,1005.2
2018-04-17T08:45:09.551Z,1005.2
2018-04-17T08:46:10.228Z,1005.2
2018-04-17T08:47:10.893Z,1005.1
2018-04-17T08:48:11.564Z,1005.2
2018-04-17T08:49:12.236Z,1005.2
2018-04-17T08:50:12.907Z,1005.2
2018-04-17T08:51:13.578Z,1005.2
2018-04-17T08:52:14.249Z,1005.2
2018-04-17T08:53:14.919Z,1005.1
2018-04-17T08:54:15.590Z,1005.2
2018-04-17T08:55:16.262Z,1005.2
2018-04-17T08:56:16.991Z,1005.2
2018-04-17T08:57:17.665Z,1005.2
2018-04-17T08:58:18.329Z,1005.2
2018-04-17T08:59:19.003Z,1005.2
2018-04-17T09:00:19.675Z,1005.2
2018-04-17T09:01:20.348Z,1005.2
2018-04-17T09:02:21.020Z,1005.2
2018-04-17T09:03:21.693Z,1005.2
2018-04-17T09:04:22.367Z,1005.2
2018-04-17T09:05:23.040Z,1005.2
2018-04-17T09:06:23.713Z,1005.2
2018-04-17T09:07:24.386Z,1005.2
2018-04-17T09:08:25.057Z,1005.3
2018-04-17T09:09:25.730Z,1005.3
2018-04-17T09:10:26.403Z,1005.3
2018-04-17T09:11:27.076Z,1005.4
2018-04-17T09:12:27.749Z,1005.3
2018-04-17T09:13:28.426Z,1005.3
2018-04-17T09:14:29.100Z,1005.3
2018-04-17T09:15:29.774Z,1005.4
2018-04-17T09:16:30.449Z,1005.3
2018-04-17T09:17:31.158Z,1005.3
2018-04-17T09:18:31.829Z,1005.3
2018-04-17T09:19:32.502Z,1005.3
2018-04-17T09:20:33.173Z,1005.4
2018-04-17T09:21:33.845Z,1005.3
2018-04-17T09:22:34.517Z,1005.4
2018-04-17T09:23:35.189Z,1005.4
2018-04-17T09:24:35.873Z,1005.4
2018-04-17T09:25:36.551Z,1005.4
2018-04-17T09:26:37.237Z,1005.4
2018-04-17T09:27:37.954Z,1005.4
2018-04-17T09:28:38.591Z,1005.4
2018-04-17T09:29:39.262Z,1005.3
2018-04-17T09:30:39.934Z,1005.4
2018-04-17T09:31:40.607Z,1005.4
2018-04-17T09:32:41.279Z,1005.4
2018-04-17T09:33:41.956Z,1005.4
2018-04-17T09:34:42.625Z,1005.4
2018-04-17T09:35:43.298Z,1005.4
2018-04-17T09:36:44.008Z,1005.4
2018-04-17T09:37:44.677Z,1005.4
2018-04-17T09:38:45.348Z,1005.4
2018-04-17T09:39:46.019Z,1005.4
2018-04-17T09:40:46.692Z,1005.4
2018-04-17T09:41:47.364Z,1005.5
2018-04-17T09:42:48.040Z,1005.4
2018-04-17T09:43:48.711Z,1005.4
2018-04-17T09:44:49.468Z,1005.4
2018-04-17T09:45:50.139Z,1005.4
2018-04-17T09:46:50.809Z,1005.4
2018-04-17T09:47:51.480Z,1005.5
2018-04-17T09:48:52.150Z,1005.5
2018-04-17T09:49:52.827Z,1005.5
2018-04-17T09:50:53.491Z,1005.4
2018-04-17T09:51:54.166Z,1005.4
2018-04-17T09:52:54.833Z,1005.4
2018-04-17T09:53:55.503Z,1005.4
2018-04-17T09:54:56.211Z,1005.4
2018-04-17T09:55:56.881Z,1005.4
2018-04-17T09:56:57.551Z,1005.4
2018-04-17T09:57:58.222Z,1005.4
2018-04-17T09:58:58.893Z,1005.4
2018-04-17T09:59:59.562Z,1005.3
2018-04-17T10:01:00.270Z,1005.3
2018-04-17T10:02:00.953Z,1005.3
2018-04-17T10:03:01.650Z,1005.3
2018-04-17T10:04:02.325Z,1005.3
2018-04-17T10:05:03.029Z,1005.3
2018-04-17T10:06:03.699Z,1005.3
2018-04-17T10:07:04.370Z,1005.3
2018-04-17T10:08:05.040Z,1005.3
2018-04-17T10:09:05.738Z,1005.3
2018-04-17T10:10:06.413Z,1005.3
2018-04-17T10:11:07.084Z,1005.3
2018-04-17T10:12:07.756Z,1005.4
2018-04-17T10:13:08.429Z,1005.3
2018-04-17T10:14:09.099Z,1005.3
2018-04-17T10:15:09.772Z,1005.3
2018-04-17T10:16:10.440Z,1005.3
2018-04-17T10:17:11.140Z,1005.4
2018-04-17T10:18:11.783Z,1005.4
2018-04-17T10:19:12.450Z,1005.4
2018-04-17T10:20:13.121Z,1005.3
2018-04-17T10:21:13.797Z,1005.4
2018-04-17T10:22:14.463Z,1005.3
2018-04-17T10:23:15.136Z,1005.3
2018-04-17T10:24:15.842Z,1005.3
2018-04-17T10:25:16.511Z,1005.3
2018-04-17T10:26:17.183Z,1005.3
2018-04-17T10:27:17.854Z,1005.3
2018-04-17T10:28:18.525Z,1005.3
2018-04-17T10:29:19.197Z,1005.3
2018-04-17T10:30:19.899Z,1005.3
2018-04-17T10:31:20.537Z,1005.3
2018-04-17T10:32:21.208Z,1005.3
2018-04-17T10:33:21.915Z,1005.3
2018-04-17T10:34:22.588Z,1005.4
2018-04-17T10:35:23.293Z,1005.3
2018-04-17T10:36:24.001Z,1005.3
2018-04-17T10:37:24.671Z,1005.3
2018-04-17T10:38:25.342Z,1005.2
2018-04-17T10:39:26.014Z,1005.2
2018-04-17T10:40:26.684Z,1005.2
2018-04-17T10:41:27.355Z,1005.1
2018-04-17T10:42:28.027Z,1005.1
2018-04-17T10:43:28.698Z,1005.1
2018-04-17T10:44:29.404Z,1005.1
2018-04-17T10:45:30.071Z,1005.1
2018-04-17T10:46:30.748Z,1005.1
2018-04-17T10:47:31.409Z,1005.1
2018-04-17T10:48:32.080Z,1005.1
2018-04-17T10:49:32.749Z,1005.1
2018-04-17T10:50:33.418Z,1005.2
2018-04-17T10:51:34.085Z,1005.1
2018-04-17T10:52:34.755Z,1005.1
2018-04-17T10:53:35.424Z,1005.1
2018-04-17T10:54:36.095Z,1005.1
2018-04-17T10:55:36.765Z,1005.1
2018-04-17T10:56:37.435Z,1005.1
2018-04-17T10:57:38.104Z,1005.1
2018-04-17T10:58:38.773Z,1005.0
2018-04-17T10:59:39.440Z,1005.0
2018-04-17T11:00:40.158Z,1005.1
2018-04-17T11:01:40.849Z,1005.1
2018-04-17T11:02:41.495Z,1005.1
2018-04-17T11:03:42.180Z,1005.1
2018-04-17T11:04:42.869Z,1005.1
2018-04-17T11:05:43.538Z,1005.1
2018-04-17T11:06:44.242Z,1005.1
2018-04-17T11:07:44.911Z,1005.1
2018-04-17T11:08:45.581Z,1005.1
2018-04-17T11:09:46.249Z,1005.1
2018-04-17T11:10:46.921Z,1005.1
2018-04-17T11:11:47.588Z,1005.0
2018-04-17T11:12:48.256Z,1005.1
2018-04-17T11:13:48.923Z,1005.0
2018-04-17T11:14:49.592Z,1005.1
2018-04-17T11:15:50.308Z,1005.0
2018-04-17T11:16:50.978Z,1005.0
2018-04-17T11:17:51.682Z,1005.0
2018-04-17T11:18:52.350Z,1005.0
2018-04-17T11:19:53.017Z,1005.0
2018-04-17T11:20:53.692Z,1005.0
2018-04-17T11:21:54.353Z,1005.0
2018-04-17T11:22:55.022Z,1005.0
2018-04-17T11:23:55.691Z,1005.0
2018-04-17T11:24:56.361Z,1005.0
2018-04-17T11:25:57.028Z,1005.0
2018-04-17T11:26:57.695Z,1005.0
2018-04-17T11:27:58.363Z,1005.0
2018-04-17T11:28:59.030Z,1005.0
2018-04-17T11:29:59.699Z,1005.0
2018-04-17T11:31:00.405Z,1005.0
2018-04-17T11:32:01.074Z,1005.0
2018-04-17T11:33:01.742Z,1005.0
2018-04-17T11:34:02.410Z,1005.0
2018-04-17T11:35:03.081Z,1005.0
2018-04-17T11:36:03.787Z,1005.0
2018-04-17T11:37:04.493Z,1005.0
2018-04-17T11:38:05.161Z,1005.0
2018-04-17T11:39:05.829Z,1005.0
2018-04-17T11:40:06.497Z,1005.0
2018-04-17T11:41:07.165Z,1004.9
2018-04-17T11:42:07.834Z,1005.0
2018-04-17T11:43:08.600Z,1004.9
2018-04-17T11:44:09.210Z,1004.9
2018-04-17T11:45:09.878Z,1005.0
2018-04-17T11:46:10.596Z,1004.9
2018-04-17T11:47:11.263Z,1004.9
2018-04-17T11:48:11.932Z,1004.9
2018-04-17T11:49:12.602Z,1004.9
2018-04-17T11:50:13.270Z,1004.9
2018-04-17T11:51:13.939Z,1004.9
2018-04-17T11:52:14.606Z,1004.9
2018-04-17T11:53:15.274Z,1004.9
2018-04-17T11:54:15.941Z,1005.0
2018-04-17T11:55:16.609Z,1005.0
2018-04-17T11:56:17.277Z,1004.9
2018-04-17T11:57:17.946Z,1004.9
2018-04-17T11:58:18.614Z,1004.9
2018-04-17T11:59:19.288Z,1004.9
2018-04-17T12:00:19.951Z,1004.9
2018-04-17T12:01:20.619Z,1004.9
2018-04-17T12:02:21.321Z,1004.9
2018-04-17T12:03:21.956Z,1004.9
2018-04-17T12:04:22.627Z,1004.9
2018-04-17T12:05:23.296Z,1004.9
2018-04-17T12:06:24.000Z,1004.9
2018-04-17T12:07:24.668Z,1004.9
2018-04-17T12:08:25.335Z,1004.9
2018-04-17T12:09:26.002Z,1004.9
2018-04-17T12:10:26.671Z,1004.9
2018-04-17T12:11:27.340Z,1004.9
2018-04-17T12:12:28.009Z,1004.9
2018-04-17T12:13:28.679Z,1004.9
2018-04-17T12:14:29.354Z,1004.9
2018-04-17T12:15:30.054Z,1004.8
2018-04-17T12:16:30.727Z,1004.9
2018-04-17T12:17:31.393Z,1004.9
2018-04-17T12:18:32.063Z,1004.9
2018-04-17T12:19:32.733Z,1004.9
2018-04-17T12:20:33.406Z,1004.9
2018-04-17T12:21:34.075Z,1004.9
2018-04-17T12:22:34.744Z,1004.9
2018-04-17T12:23:35.413Z,1004.9
2018-04-17T12:24:36.080Z,1004.9
2018-04-17T12:25:36.747Z,1004.9
2018-04-17T12:26:37.464Z,1004.9
2018-04-17T12:27:38.139Z,1004.9
2018-04-17T12:28:38.797Z,1004.9
2018-04-17T12:29:39.465Z,1004.9
2018-04-17T12:30:40.136Z,1004.9
2018-04-17T12:31:40.844Z,1004.9
2018-04-17T12:32:41.514Z,1004.9
2018-04-17T12:33:42.180Z,1004.9
2018-04-17T12:34:42.849Z,1004.9
2018-04-17T12:35:43.519Z,1004.9
2018-04-17T12:36:44.189Z,1004.8
2018-04-17T12:37:44.860Z,1004.8